Time;durP1;ratioP1;P1;durP2;ratioP2;P2;SDS_P1;SDS_P2;PMS_P1;PMS_P2;Temp;Humidity;BMP_temperature;BMP_pressure;BME280_temperature;BME280_humidity;BME280_pressure;Samples;Min_cycle;Max_cycle;Signal;HPM_P1;HPM_P2
2023/04/18 00:02:00;;;;;;;;;;;6.70;99.90;;;;;;5015025;28;19962;-78
2023/04/18 00:04:26;;;;;;;;;;;6.70;99.90;;;;;;5038068;28;19921;-79
2023/04/18 00:06:52;;;;;;;;;;;6.60;99.90;;;;;;5038217;28;19963;-78
2023/04/18 00:09:17;;;;;;;;;;;6.60;99.90;;;;;;5034988;28;20016;-78
2023/04/18 00:11:43;;;;;;;;;;;6.50;99.90;;;;;;5038995;28;19920;-79
2023/04/18 00:14:09;;;;;;;;;;;6.40;99.90;;;;;;5013543;28;19917;-78
2023/04/18 00:16:35;;;;;;;;;;;6.40;99.90;;;;;;5033560;28;19920;-78
2023/04/18 00:19:03;;;;;;;;;;;6.40;99.90;;;;;;5036276;28;19928;-78
2023/04/18 00:21:30;;;;;;;;;;;6.30;99.90;;;;;;5016011;28;20000;-78
2023/04/18 00:23:56;;;;;;;;;;;6.30;99.90;;;;;;5038737;28;19920;-78
2023/04/18 00:26:22;;;;;;;;;;;6.20;99.90;;;;;;5036065;28;20385;-79
2023/04/18 00:28:47;;;;;;;;;;;6.20;99.90;;;;;;5018720;28;19921;-79
2023/04/18 00:31:13;;;;;;;;;;;6.10;99.90;;;;;;5037638;28;20030;-79
2023/04/18 00:33:38;;;;;;;;;;;6.10;99.90;;;;;;5016189;28;19972;-78
2023/04/18 00:36:04;;;;;;;;;;;6.00;99.90;;;;;;5014259;28;19921;-78
2023/04/18 00:38:30;;;;;;;;;;;5.90;99.90;;;;;;5034983;28;19971;-78
2023/04/18 00:40:55;;;;;;;;;;;6.00;99.90;;;;;;5020684;28;19927;-78
2023/04/18 00:43:25;;;;;;;;;;;5.90;99.90;;;;;;5033522;28;20274;-79
2023/04/18 00:45:51;;;;;;;;;;;6.00;99.90;;;;;;5015824;28;19967;-78
2023/04/18 00:48:17;;;;;;;;;;;6.00;99.90;;;;;;5030972;28;19968;-78
2023/04/18 00:50:42;;;;;;;;;;;6.00;99.90;;;;;;5021675;28;19967;-78
2023/04/18 00:53:09;;;;;;;;;;;6.00;99.90;;;;;;5037680;28;19929;-79
2023/04/18 00:55:35;;;;;;;;;;;5.90;99.90;;;;;;5040272;28;19947;-78
2023/04/18 00:58:00;;;;;;;;;;;6.00;99.90;;;;;;5016653;28;19939;-79
2023/04/18 01:00:26;;;;;;;;;;;6.00;99.90;;;;;;5031498;28;19921;-78
2023/04/18 01:02:52;;;;;;;;;;;5.90;99.90;;;;;;5021756;28;20020;-78
2023/04/18 01:05:20;;;;;;;;;;;6.00;99.90;;;;;;5038755;28;19920;-78
2023/04/18 01:07:45;;;;;;;;;;;6.20;99.90;;;;;;5037053;28;19920;-79
2023/04/18 01:10:11;;;;;;;;;;;6.00;99.90;;;;;;5018685;28;19920;-78
2023/04/18 01:12:36;;;;;;;;;;;5.90;99.90;;;;;;5020207;28;19929;-79
2023/04/18 01:15:03;;;;;;;;;;;5.80;99.90;;;;;;5034257;28;19925;-79
2023/04/18 01:17:28;;;;;;;;;;;5.80;99.90;;;;;;5037659;28;19921;-78
2023/04/18 01:19:55;;;;;;;;;;;5.80;99.90;;;;;;5032737;28;19945;-78
2023/04/18 01:22:21;;;;;;;;;;;6.00;99.90;;;;;;5036244;28;19924;-78
2023/04/18 01:24:46;;;;;;;;;;;6.00;99.90;;;;;;5018267;28;19947;-78
2023/04/18 01:27:12;;;;;;;;;;;6.00;99.90;;;;;;5020678;28;19972;-79
2023/04/18 01:29:38;;;;;;;;;;;6.00;99.90;;;;;;5034193;28;19928;-78
2023/04/18 01:32:04;;;;;;;;;;;6.20;99.90;;;;;;5021446;28;20861;-78
2023/04/18 01:34:29;;;;;;;;;;;6.20;99.90;;;;;;5018697;28;19921;-78
2023/04/18 01:36:55;;;;;;;;;;;6.20;99.90;;;;;;5038598;28;20378;-79
2023/04/18 01:39:21;;;;;;;;;;;6.20;99.90;;;;;;5014208;28;20015;-79
2023/04/18 01:41:46;;;;;;;;;;;6.20;99.90;;;;;;5037115;28;19921;-78
2023/04/18 01:44:12;;;;;;;;;;;6.20;99.90;;;;;;5037323;28;19980;-78
2023/04/18 01:46:38;;;;;;;;;;;6.20;99.90;;;;;;5021914;28;20723;-78
2023/04/18 01:49:04;;;;;;;;;;;6.20;99.90;;;;;;5035949;28;19921;-79
2023/04/18 01:51:30;;;;;;;;;;;6.10;99.90;;;;;;5036610;28;19920;-79
2023/04/18 01:53:55;;;;;;;;;;;6.10;99.90;;;;;;5033957;28;19947;-78
2023/04/18 01:56:21;;;;;;;;;;;6.10;99.90;;;;;;5035817;28;20537;-78
2023/04/18 01:58:47;;;;;;;;;;;6.00;99.90;;;;;;5015562;28;19924;-78
2023/04/18 02:01:12;;;;;;;;;;;6.00;99.90;;;;;;5034951;28;20008;-78
2023/04/18 02:03:38;;;;;;;;;;;6.00;99.90;;;;;;5019514;28;19920;-79
2023/04/18 02:06:04;;;;;;;;;;;5.90;99.90;;;;;;5037412;28;19921;-79
2023/04/18 02:08:31;;;;;;;;;;;5.90;99.90;;;;;;5016146;28;19975;-79
2023/04/18 02:10:57;;;;;;;;;;;5.90;99.90;;;;;;5019757;28;19924;-78
2023/04/18 02:13:23;;;;;;;;;;;5.80;99.90;;;;;;5018915;28;20003;-78
2023/04/18 02:15:48;;;;;;;;;;;5.90;99.90;;;;;;5014834;28;19921;-78
2023/04/18 02:18:14;;;;;;;;;;;5.70;99.90;;;;;;5032624;28;19967;-78
2023/04/18 02:20:40;;;;;;;;;;;5.70;99.90;;;;;;5033152;28;22224;-79
2023/04/18 02:23:05;;;;;;;;;;;5.80;99.90;;;;;;5039504;28;20560;-78
2023/04/18 02:25:31;;;;;;;;;;;6.10;99.90;;;;;;5035461;28;19920;-78
2023/04/18 02:27:57;;;;;;;;;;;6.10;99.90;;;;;;5036512;28;19974;-78
2023/04/18 02:30:25;;;;;;;;;;;6.00;99.90;;;;;;5036598;28;19920;-78
2023/04/18 02:32:57;;;;;;;;;;;5.90;99.90;;;;;;5008836;28;19928;-78
2023/04/18 02:35:23;;;;;;;;;;;6.10;99.90;;;;;;5037243;28;19928;-78
2023/04/18 02:37:49;;;;;;;;;;;6.00;99.90;;;;;;5037559;28;19916;-78
2023/04/18 02:40:14;;;;;;;;;;;6.00;99.90;;;;;;5022101;28;19916;-78
2023/04/18 02:42:40;;;;;;;;;;;6.10;99.90;;;;;;5040657;28;19979;-79
2023/04/18 02:45:06;;;;;;;;;;;6.00;99.90;;;;;;5039991;28;19917;-78
2023/04/18 02:47:31;;;;;;;;;;;5.90;99.90;;;;;;5043766;28;19921;-78
2023/04/18 02:49:57;;;;;;;;;;;6.00;99.90;;;;;;5035751;28;19921;-78
2023/04/18 02:52:23;;;;;;;;;;;5.90;99.90;;;;;;5022961;28;19951;-79
2023/04/18 02:54:49;;;;;;;;;;;6.00;99.90;;;;;;5021187;28;19944;-79
2023/04/18 02:57:14;;;;;;;;;;;6.00;99.90;;;;;;5016792;28;19916;-79
2023/04/18 02:59:40;;;;;;;;;;;6.10;99.90;;;;;;5038304;28;19935;-79
2023/04/18 03:02:05;;;;;;;;;;;5.90;99.90;;;;;;5023139;28;20473;-78
2023/04/18 03:04:31;;;;;;;;;;;5.90;99.90;;;;;;5037864;28;19927;-78
2023/04/18 03:06:58;;;;;;;;;;;5.80;99.90;;;;;;5039367;28;20012;-78
2023/04/18 03:09:24;;;;;;;;;;;5.80;99.90;;;;;;5019932;28;19928;-78
2023/04/18 03:11:49;;;;;;;;;;;5.80;99.90;;;;;;5040647;28;19928;-78
2023/04/18 03:14:15;;;;;;;;;;;5.80;99.90;;;;;;5040287;28;19947;-79
2023/04/18 03:16:41;;;;;;;;;;;5.90;99.90;;;;;;5032933;28;19927;-78
2023/04/18 03:19:06;;;;;;;;;;;5.80;99.90;;;;;;5036270;28;19999;-78
2023/04/18 03:21:32;;;;;;;;;;;5.80;99.90;;;;;;5022342;28;19925;-78
2023/04/18 03:23:57;;;;;;;;;;;5.90;99.90;;;;;;5024329;28;19948;-79
2023/04/18 03:26:23;;;;;;;;;;;6.10;99.90;;;;;;5041399;28;19946;-78
2023/04/18 03:28:48;;;;;;;;;;;6.20;99.90;;;;;;5038353;28;19921;-79
2023/04/18 03:31:14;;;;;;;;;;;6.20;99.90;;;;;;5033935;28;19921;-78
2023/04/18 03:33:41;;;;;;;;;;;6.30;99.90;;;;;;5041294;28;20679;-79
2023/04/18 03:36:07;;;;;;;;;;;6.40;99.90;;;;;;5043551;28;19921;-79
2023/04/18 03:38:32;;;;;;;;;;;6.40;99.90;;;;;;5023357;28;19924;-78
2023/04/18 03:40:59;;;;;;;;;;;6.50;99.90;;;;;;5025160;28;20336;-78
2023/04/18 03:43:24;;;;;;;;;;;6.50;99.90;;;;;;5035092;28;19921;-79
2023/04/18 03:45:50;;;;;;;;;;;6.50;99.90;;;;;;5022716;28;19927;-78
2023/04/18 03:48:15;;;;;;;;;;;6.50;99.90;;;;;;5040842;28;19916;-79
2023/04/18 03:50:41;;;;;;;;;;;6.60;99.90;;;;;;5040989;28;20003;-78
2023/04/18 03:53:07;;;;;;;;;;;6.60;99.90;;;;;;5043249;28;19921;-79
2023/04/18 03:55:32;;;;;;;;;;;6.60;99.90;;;;;;5021974;28;19916;-79
2023/04/18 03:57:58;;;;;;;;;;;6.70;99.90;;;;;;5034768;28;20306;-78
2023/04/18 04:00:24;;;;;;;;;;;6.70;99.90;;;;;;5038550;28;19984;-79
2023/04/18 04:02:50;;;;;;;;;;;6.80;99.90;;;;;;5017885;28;19920;-78
2023/04/18 04:05:15;;;;;;;;;;;6.70;99.90;;;;;;5022172;28;19944;-78
2023/04/18 04:07:41;;;;;;;;;;;6.70;99.90;;;;;;5004351;28;19925;-78
2023/04/18 04:10:07;;;;;;;;;;;6.70;99.90;;;;;;5037983;28;19921;-79
2023/04/18 04:12:32;;;;;;;;;;;6.70;99.90;;;;;;5019839;28;19948;-78
2023/04/18 04:14:58;;;;;;;;;;;6.60;99.90;;;;;;5020558;28;19998;-78
2023/04/18 04:17:24;;;;;;;;;;;6.70;99.90;;;;;;5039176;28;19928;-78
2023/04/18 04:19:50;;;;;;;;;;;6.60;99.90;;;;;;5018067;28;19928;-79
2023/04/18 04:22:15;;;;;;;;;;;6.70;99.90;;;;;;5027784;28;19916;-79
2023/04/18 04:24:41;;;;;;;;;;;6.70;99.90;;;;;;5017749;28;20399;-78
2023/04/18 04:27:07;;;;;;;;;;;6.70;99.90;;;;;;5039243;28;19917;-78
2023/04/18 04:29:34;;;;;;;;;;;6.80;99.90;;;;;;5036416;28;19939;-78
2023/04/18 04:31:59;;;;;;;;;;;6.90;99.90;;;;;;5032545;28;20310;-79
2023/04/18 04:34:25;;;;;;;;;;;6.90;99.90;;;;;;5036209;28;19920;-79
2023/04/18 04:36:52;;;;;;;;;;;6.90;99.90;;;;;;5016950;28;19951;-77
2023/04/18 04:39:18;;;;;;;;;;;6.90;99.90;;;;;;5019380;28;20448;-79
2023/04/18 04:41:45;;;;;;;;;;;6.90;99.90;;;;;;5019545;28;19921;-79
2023/04/18 04:44:11;;;;;;;;;;;7.00;99.90;;;;;;5039327;28;20366;-78
2023/04/18 04:46:39;;;;;;;;;;;7.00;99.90;;;;;;5035482;28;19924;-79
2023/04/18 04:49:05;;;;;;;;;;;7.00;99.90;;;;;;5016242;28;19931;-78
2023/04/18 04:51:31;;;;;;;;;;;7.00;99.90;;;;;;5035147;28;19921;-79
2023/04/18 04:53:56;;;;;;;;;;;7.00;99.90;;;;;;5035143;28;19980;-78
2023/04/18 04:56:22;;;;;;;;;;;7.00;99.90;;;;;;5035679;28;19991;-78
2023/04/18 04:58:48;;;;;;;;;;;6.90;99.90;;;;;;5000021;28;20121;-79
2023/04/18 05:01:15;;;;;;;;;;;6.90;99.90;;;;;;5018532;28;20348;-79
2023/04/18 05:03:41;;;;;;;;;;;7.00;99.90;;;;;;5039702;28;19995;-78
2023/04/18 05:06:06;;;;;;;;;;;6.90;99.90;;;;;;5037361;28;20361;-78
2023/04/18 05:08:32;;;;;;;;;;;7.00;99.90;;;;;;5015688;28;20416;-79
2023/04/18 05:10:58;;;;;;;;;;;7.00;99.90;;;;;;5035237;28;20003;-79
2023/04/18 05:13:23;;;;;;;;;;;7.00;99.90;;;;;;5035313;28;19936;-79
2023/04/18 05:15:50;;;;;;;;;;;7.00;99.90;;;;;;5036128;28;19921;-78
2023/04/18 05:18:16;;;;;;;;;;;7.00;99.90;;;;;;5037672;28;20394;-78
2023/04/18 05:20:41;;;;;;;;;;;7.10;99.90;;;;;;5033486;28;19916;-79
2023/04/18 05:23:07;;;;;;;;;;;7.10;99.90;;;;;;5037508;28;19920;-79
2023/04/18 05:25:33;;;;;;;;;;;7.00;99.90;;;;;;5038435;28;20055;-79
2023/04/18 05:27:59;;;;;;;;;;;7.00;99.90;;;;;;5041215;28;20205;-78
2023/04/18 05:30:25;;;;;;;;;;;7.10;99.90;;;;;;5036779;28;19928;-78
2023/04/18 05:32:50;;;;;;;;;;;7.00;99.90;;;;;;5040163;28;20374;-78
2023/04/18 05:35:16;;;;;;;;;;;7.10;99.90;;;;;;5037773;28;20417;-79
2023/04/18 05:37:41;;;;;;;;;;;7.00;99.90;;;;;;5019001;28;20254;-79
2023/04/18 05:40:07;;;;;;;;;;;7.00;99.90;;;;;;5018123;28;19921;-78
2023/04/18 05:42:33;;;;;;;;;;;7.00;99.90;;;;;;5019302;28;19917;-79
2023/04/18 05:44:59;;;;;;;;;;;7.00;99.90;;;;;;5020639;28;19920;-78
2023/04/18 05:47:27;;;;;;;;;;;7.00;99.90;;;;;;5039311;28;19928;-78
2023/04/18 05:49:53;;;;;;;;;;;7.00;99.90;;;;;;5030333;28;19935;-79
2023/04/18 05:52:19;;;;;;;;;;;7.00;99.90;;;;;;5014999;28;19975;-79
2023/04/18 05:54:44;;;;;;;;;;;7.10;99.90;;;;;;5021784;28;19921;-79
2023/04/18 05:57:10;;;;;;;;;;;7.10;99.90;;;;;;5022282;28;20008;-79
2023/04/18 05:59:35;;;;;;;;;;;7.10;99.90;;;;;;5021776;28;20378;-79
2023/04/18 06:02:01;;;;;;;;;;;7.20;99.90;;;;;;4992405;28;19929;-78
2023/04/18 06:04:26;;;;;;;;;;;7.30;99.90;;;;;;5001165;28;19928;-79
2023/04/18 06:06:52;;;;;;;;;;;7.30;99.90;;;;;;5022285;28;19963;-79
2023/04/18 06:09:17;;;;;;;;;;;7.60;99.90;;;;;;5027760;28;19921;-78
2023/04/18 06:11:43;;;;;;;;;;;8.00;99.90;;;;;;5040860;28;19981;-79
2023/04/18 06:14:09;;;;;;;;;;;8.00;99.90;;;;;;5042750;28;19920;-78
2023/04/18 06:16:35;;;;;;;;;;;8.00;99.90;;;;;;5025045;28;19921;-79
2023/04/18 06:19:02;;;;;;;;;;;7.90;99.90;;;;;;5037526;28;19928;-78
2023/04/18 06:21:27;;;;;;;;;;;7.80;99.90;;;;;;5040242;28;19971;-79
2023/04/18 06:23:53;;;;;;;;;;;7.90;99.90;;;;;;5021300;28;20016;-79
2023/04/18 06:26:19;;;;;;;;;;;8.30;99.90;;;;;;5040274;28;19923;-79
2023/04/18 06:28:44;;;;;;;;;;;8.30;99.90;;;;;;5039585;28;19952;-79
2023/04/18 06:31:10;;;;;;;;;;;8.10;99.90;;;;;;5039576;28;19924;-77
2023/04/18 06:33:36;;;;;;;;;;;8.20;99.90;;;;;;5025135;28;19920;-79
2023/04/18 06:36:02;;;;;;;;;;;8.40;99.90;;;;;;5045942;28;20562;-79
2023/04/18 06:38:28;;;;;;;;;;;8.60;99.90;;;;;;5020489;28;19952;-79
2023/04/18 06:40:53;;;;;;;;;;;8.20;99.90;;;;;;5043044;28;19923;-78
2023/04/18 06:43:20;;;;;;;;;;;8.20;99.90;;;;;;5018057;28;19963;-78
2023/04/18 06:45:46;;;;;;;;;;;8.10;99.90;;;;;;5011192;28;19935;-79
2023/04/18 06:48:12;;;;;;;;;;;8.00;99.90;;;;;;5009557;28;19916;-78
2023/04/18 06:50:37;;;;;;;;;;;8.00;99.90;;;;;;5010952;28;19932;-79
2023/04/18 06:53:03;;;;;;;;;;;8.00;99.90;;;;;;5013095;28;19928;-79
2023/04/18 06:55:28;;;;;;;;;;;8.10;99.90;;;;;;5022225;28;19928;-79
2023/04/18 06:57:54;;;;;;;;;;;8.10;99.90;;;;;;5011595;28;19920;-79
2023/04/18 07:00:20;;;;;;;;;;;8.20;99.90;;;;;;5022788;28;19921;-79
2023/04/18 07:02:45;;;;;;;;;;;8.50;99.90;;;;;;5010050;28;19929;-78
2023/04/18 07:05:11;;;;;;;;;;;8.90;99.90;;;;;;5009630;28;19928;-79
2023/04/18 07:07:36;;;;;;;;;;;9.30;99.90;;;;;;5012051;28;20666;-79
2023/04/18 07:10:03;;;;;;;;;;;9.40;99.90;;;;;;5032602;28;19917;-79
2023/04/18 07:12:28;;;;;;;;;;;9.90;99.90;;;;;;5020547;28;19928;-79
2023/04/18 07:14:54;;;;;;;;;;;9.60;99.90;;;;;;5034368;28;20281;-78
2023/04/18 07:17:19;;;;;;;;;;;9.50;99.90;;;;;;5042633;28;19921;-79
2023/04/18 07:19:45;;;;;;;;;;;9.10;99.90;;;;;;5031093;28;19928;-79
2023/04/18 07:22:11;;;;;;;;;;;9.20;99.90;;;;;;5041520;28;20610;-78
2023/04/18 07:24:38;;;;;;;;;;;9.10;99.90;;;;;;5024560;28;20382;-79
2023/04/18 07:27:04;;;;;;;;;;;8.90;99.90;;;;;;5041531;28;19947;-79
2023/04/18 07:29:30;;;;;;;;;;;9.00;99.90;;;;;;5020546;28;19963;-78
2023/04/18 07:31:56;;;;;;;;;;;9.60;99.90;;;;;;5034249;28;19978;-79
2023/04/18 07:34:22;;;;;;;;;;;9.70;99.90;;;;;;5039921;28;19924;-79
2023/04/18 07:36:47;;;;;;;;;;;9.60;99.90;;;;;;5033494;28;19921;-79
2023/04/18 07:39:13;;;;;;;;;;;9.60;99.90;;;;;;5020611;28;20621;-79
2023/04/18 07:41:39;;;;;;;;;;;9.50;99.90;;;;;;5039372;28;20269;-79
2023/04/18 07:44:04;;;;;;;;;;;9.60;99.90;;;;;;5022531;28;20262;-79
2023/04/18 07:46:31;;;;;;;;;;;9.30;99.90;;;;;;5030582;28;19940;-79
2023/04/18 07:48:57;;;;;;;;;;;9.60;99.90;;;;;;5019510;28;19924;-79
2023/04/18 07:51:25;;;;;;;;;;;9.70;99.90;;;;;;5035929;28;19921;-79
2023/04/18 07:53:51;;;;;;;;;;;10.20;99.90;;;;;;5020616;28;19920;-79
2023/04/18 07:56:16;;;;;;;;;;;10.20;99.90;;;;;;5035060;28;20497;-79
2023/04/18 07:58:42;;;;;;;;;;;9.90;99.90;;;;;;5021472;28;19917;-78
2023/04/18 08:01:12;;;;;;;;;;;9.50;99.90;;;;;;5022565;28;19920;-79
2023/04/18 08:03:37;;;;;;;;;;;9.60;99.90;;;;;;5021452;28;20011;-79
2023/04/18 08:06:04;;;;;;;;;;;9.50;99.90;;;;;;5008817;28;19927;-79
2023/04/18 08:08:30;;;;;;;;;;;9.50;99.90;;;;;;5011535;28;19935;-79
2023/04/18 08:10:55;;;;;;;;;;;9.70;99.90;;;;;;5014180;28;19928;-79
2023/04/18 08:13:21;;;;;;;;;;;9.60;99.90;;;;;;5025585;28;19925;-79
2023/04/18 08:15:46;;;;;;;;;;;9.60;99.90;;;;;;5019041;28;20350;-79
2023/04/18 08:18:12;;;;;;;;;;;9.60;99.90;;;;;;5006966;28;19925;-80
2023/04/18 08:20:38;;;;;;;;;;;9.60;99.90;;;;;;5020453;28;19920;-79
2023/04/18 08:23:03;;;;;;;;;;;9.60;99.90;;;;;;5019869;28;19925;-78
2023/04/18 08:25:30;;;;;;;;;;;9.60;99.90;;;;;;5023049;28;20020;-79
2023/04/18 08:27:56;;;;;;;;;;;9.70;99.90;;;;;;5014782;28;20398;-79
2023/04/18 08:30:22;;;;;;;;;;;10.10;99.90;;;;;;5020962;28;19936;-78
2023/04/18 08:32:48;;;;;;;;;;;10.20;99.90;;;;;;5019251;28;19925;-79
2023/04/18 08:35:14;;;;;;;;;;;10.30;99.90;;;;;;5020788;28;19920;-79
2023/04/18 08:37:40;;;;;;;;;;;10.30;99.90;;;;;;5029876;28;20024;-79
2023/04/18 08:40:06;;;;;;;;;;;10.20;99.90;;;;;;5026795;28;19917;-79
2023/04/18 08:42:32;;;;;;;;;;;10.30;99.90;;;;;;5014361;28;19982;-79
2023/04/18 08:44:58;;;;;;;;;;;10.30;99.90;;;;;;5015115;28;19929;-79
2023/04/18 08:47:25;;;;;;;;;;;10.20;99.90;;;;;;5014930;28;19944;-80
2023/04/18 08:49:51;;;;;;;;;;;10.80;99.90;;;;;;5020740;28;19916;-80
2023/04/18 08:52:16;;;;;;;;;;;10.90;99.90;;;;;;5039746;28;19987;-79
2023/04/18 08:54:43;;;;;;;;;;;10.90;99.90;;;;;;5013979;28;19921;-79
2023/04/18 08:57:09;;;;;;;;;;;11.30;99.90;;;;;;5016949;28;20499;-79
2023/04/18 08:59:35;;;;;;;;;;;11.10;99.90;;;;;;5019968;28;19927;-79
2023/04/18 09:02:02;;;;;;;;;;;12.00;99.90;;;;;;5027930;28;19921;-78
2023/04/18 09:04:30;;;;;;;;;;;11.80;99.90;;;;;;5019831;28;19932;-79
2023/04/18 09:06:56;;;;;;;;;;;11.70;99.90;;;;;;5013785;28;19920;-78
2023/04/18 09:09:26;;;;;;;;;;;11.80;99.90;;;;;;5037735;28;19982;-80
2023/04/18 09:12:04;;;;;;;;;;;11.60;99.90;;;;;;5020890;28;19924;-79
2023/04/18 09:14:31;;;;;;;;;;;11.00;99.90;;;;;;5020950;28;20809;-79
2023/04/18 09:16:56;;;;;;;;;;;11.20;99.90;;;;;;5019643;28;19921;-80
2023/04/18 09:19:22;;;;;;;;;;;10.80;99.90;;;;;;5017208;28;19928;-80
2023/04/18 09:21:56;;;;;;;;;;;11.40;99.90;;;;;;5018199;28;19960;-79
2023/04/18 09:24:28;;;;;;;;;;;12.00;99.90;;;;;;5015843;28;19960;-79
2023/04/18 09:26:54;;;;;;;;;;;12.40;99.90;;;;;;5015130;28;19917;-78
2023/04/18 09:29:24;;;;;;;;;;;12.50;99.90;;;;;;5018458;28;20698;-78
2023/04/18 09:32:00;;;;;;;;;;;12.40;99.90;;;;;;5018802;28;19920;-79
2023/04/18 09:34:26;;;;;;;;;;;12.10;99.90;;;;;;5014184;28;20358;-80
2023/04/18 09:37:04;;;;;;;;;;;12.20;99.90;;;;;;5018219;28;20272;-80
2023/04/18 09:39:30;;;;;;;;;;;11.80;99.90;;;;;;5014574;28;19999;-79
2023/04/18 09:41:56;;;;;;;;;;;11.30;99.90;;;;;;5014604;28;20346;-79
2023/04/18 09:44:22;;;;;;;;;;;10.90;99.90;;;;;;5001472;28;19921;-79
2023/04/18 09:46:48;;;;;;;;;;;11.30;99.90;;;;;;5013589;28;20129;-79
2023/04/18 09:49:14;;;;;;;;;;;11.90;99.90;;;;;;5017604;28;19920;-80
2023/04/18 09:51:40;;;;;;;;;;;12.10;99.90;;;;;;5038129;28;20385;-79
2023/04/18 09:54:07;;;;;;;;;;;11.90;99.90;;;;;;5018586;28;19928;-80
2023/04/18 09:56:33;;;;;;;;;;;11.60;99.90;;;;;;5018765;28;19924;-79
2023/04/18 09:59:02;;;;;;;;;;;11.90;99.90;;;;;;5015077;28;20714;-79
2023/04/18 10:01:28;;;;;;;;;;;12.60;99.90;;;;;;5014227;28;19974;-78
2023/04/18 10:03:54;;;;;;;;;;;13.40;99.90;;;;;;5016368;28;19927;-79
2023/04/18 10:06:20;;;;;;;;;;;12.40;99.90;;;;;;5013402;28;19928;-78
2023/04/18 10:08:47;;;;;;;;;;;12.50;99.90;;;;;;5015629;28;19921;-79
2023/04/18 10:11:12;;;;;;;;;;;13.30;99.90;;;;;;5017610;28;19921;-79
2023/04/18 10:13:40;;;;;;;;;;;12.40;99.90;;;;;;5019675;28;19927;-79
2023/04/18 10:16:06;;;;;;;;;;;12.70;99.90;;;;;;5023040;28;19927;-79
2023/04/18 10:18:31;;;;;;;;;;;11.80;99.90;;;;;;5017267;28;19920;-80
2023/04/18 10:21:02;;;;;;;;;;;12.20;99.90;;;;;;5019816;28;19921;-79
2023/04/18 10:23:30;;;;;;;;;;;12.00;99.90;;;;;;5019765;28;19927;-79
2023/04/18 10:25:56;;;;;;;;;;;11.90;99.90;;;;;;5016264;28;19920;-79
2023/04/18 10:28:23;;;;;;;;;;;12.10;99.90;;;;;;5033385;28;19920;-79
2023/04/18 10:30:50;;;;;;;;;;;12.10;99.90;;;;;;5019704;28;20017;-79
2023/04/18 10:33:22;;;;;;;;;;;11.80;99.90;;;;;;5018944;28;20591;-79
2023/04/18 10:35:58;;;;;;;;;;;11.60;99.90;;;;;;5018173;28;19929;-79
2023/04/18 10:38:24;;;;;;;;;;;12.20;99.90;;;;;;5018226;28;19921;-80
2023/04/18 10:40:49;;;;;;;;;;;12.30;99.90;;;;;;5016584;28;19978;-79
2023/04/18 10:43:15;;;;;;;;;;;12.40;99.90;;;;;;5019223;28;19927;-80
2023/04/18 10:45:40;;;;;;;;;;;12.00;99.90;;;;;;5019975;28;19979;-80
2023/04/18 10:48:22;;;;;;;;;;;12.10;99.90;;;;;;5018460;28;19927;-79
2023/04/18 10:51:07;;;;;;;;;;;12.90;99.90;;;;;;5019786;28;19921;-80
2023/04/18 10:53:32;;;;;;;;;;;13.50;99.90;;;;;;5017097;28;20017;-80
2023/04/18 10:55:58;;;;;;;;;;;13.40;99.90;;;;;;5018270;28;19982;-79
2023/04/18 10:58:23;;;;;;;;;;;13.60;99.90;;;;;;5021462;28;19921;-81
2023/04/18 11:00:50;;;;;;;;;;;13.50;99.90;;;;;;5022862;28;19927;-81
2023/04/18 11:03:15;;;;;;;;;;;13.20;99.90;;;;;;5001668;28;19921;-80
2023/04/18 11:05:42;;;;;;;;;;;12.60;99.90;;;;;;5023130;28;19916;-79
2023/04/18 11:08:21;;;;;;;;;;;12.60;99.90;;;;;;5020355;28;20369;-79
2023/04/18 11:10:55;;;;;;;;;;;12.80;99.90;;;;;;5010393;28;19956;-79
2023/04/18 11:13:21;;;;;;;;;;;13.00;99.90;;;;;;5021382;28;20509;-78
2023/04/18 11:15:46;;;;;;;;;;;12.40;99.90;;;;;;5024012;28;20012;-79
2023/04/18 11:18:12;;;;;;;;;;;12.90;99.90;;;;;;5021475;28;20262;-79
2023/04/18 11:20:38;;;;;;;;;;;13.30;99.90;;;;;;5021607;28;19927;-79
2023/04/18 11:23:13;;;;;;;;;;;13.70;99.90;;;;;;5021649;28;19948;-79
2023/04/18 11:25:39;;;;;;;;;;;13.50;99.90;;;;;;5023047;28;19927;-80
2023/04/18 11:28:05;;;;;;;;;;;14.20;99.90;;;;;;5019725;28;19921;-80
2023/04/18 11:30:37;;;;;;;;;;;14.00;99.90;;;;;;5005796;28;19971;-80
2023/04/18 11:33:07;;;;;;;;;;;13.20;99.90;;;;;;5020469;28;19928;-81
2023/04/18 11:35:36;;;;;;;;;;;13.00;99.90;;;;;;5040063;28;19928;-80
2023/04/18 11:38:01;;;;;;;;;;;13.10;99.90;;;;;;5004076;28;19925;-79
2023/04/18 11:40:27;;;;;;;;;;;12.70;99.90;;;;;;5021622;28;19924;-79
2023/04/18 11:42:53;;;;;;;;;;;13.20;99.90;;;;;;5022093;28;19928;-78
2023/04/18 11:45:18;;;;;;;;;;;13.50;99.90;;;;;;5021677;28;20525;-78
2023/04/18 11:47:45;;;;;;;;;;;14.20;99.90;;;;;;5020760;28;19928;-78
2023/04/18 11:50:11;;;;;;;;;;;13.80;99.90;;;;;;5017787;28;19928;-78
2023/04/18 11:52:38;;;;;;;;;;;14.40;99.90;;;;;;5022413;28;19927;-78
2023/04/18 11:55:11;;;;;;;;;;;14.70;99.90;;;;;;5021533;28;20050;-78
2023/04/18 11:57:37;;;;;;;;;;;14.40;99.90;;;;;;5020272;28;19975;-78
2023/04/18 12:00:05;;;;;;;;;;;14.10;99.90;;;;;;5020120;28;19924;-78
2023/04/18 12:02:41;;;;;;;;;;;13.70;99.90;;;;;;5020318;28;20378;-77
2023/04/18 12:05:08;;;;;;;;;;;13.70;99.90;;;;;;5022445;28;20386;-78
2023/04/18 12:07:33;;;;;;;;;;;14.10;99.90;;;;;;5022389;28;19947;-77
2023/04/18 12:09:59;;;;;;;;;;;14.90;99.90;;;;;;5019811;28;20380;-77
2023/04/18 12:12:25;;;;;;;;;;;15.10;99.90;;;;;;5038973;28;20297;-78
2023/04/18 12:15:17;;;;;;;;;;;14.40;99.90;;;;;;5021004;28;19925;-78
2023/04/18 12:17:43;;;;;;;;;;;14.60;99.90;;;;;;5021335;28;19921;-78
2023/04/18 12:20:09;;;;;;;;;;;14.40;99.90;;;;;;5021123;28;19925;-78
2023/04/18 12:22:44;;;;;;;;;;;14.90;99.90;;;;;;5026381;28;19921;-79
2023/04/18 12:25:24;;;;;;;;;;;14.50;99.90;;;;;;5021043;28;19921;-77
2023/04/18 12:27:56;;;;;;;;;;;13.80;99.90;;;;;;5036040;28;19921;-79
2023/04/18 12:30:24;;;;;;;;;;;13.80;99.90;;;;;;5034849;28;20373;-78
2023/04/18 12:32:50;;;;;;;;;;;14.00;99.90;;;;;;5011574;28;20289;-78
2023/04/18 12:35:18;;;;;;;;;;;14.10;99.90;;;;;;5037199;28;19921;-78
2023/04/18 12:37:44;;;;;;;;;;;14.10;99.90;;;;;;5024355;28;20015;-78
2023/04/18 12:40:10;;;;;;;;;;;14.90;99.90;;;;;;5015561;28;20422;-79
2023/04/18 12:42:36;;;;;;;;;;;14.30;99.90;;;;;;5036020;28;19967;-78
2023/04/18 12:45:06;;;;;;;;;;;14.20;99.90;;;;;;5010984;28;20017;-77
2023/04/18 12:47:32;;;;;;;;;;;14.70;99.90;;;;;;5031935;28;19932;-77
2023/04/18 12:49:58;;;;;;;;;;;14.80;99.90;;;;;;4998779;28;19927;-78
2023/04/18 12:52:23;;;;;;;;;;;15.10;99.90;;;;;;5020597;28;19932;-78
2023/04/18 12:54:49;;;;;;;;;;;15.00;99.90;;;;;;5020874;28;19943;-78
2023/04/18 12:57:15;;;;;;;;;;;15.10;99.90;;;;;;5015333;28;19917;-78
2023/04/18 12:59:41;;;;;;;;;;;15.10;99.90;;;;;;5020063;28;19927;-78
2023/04/18 13:02:06;;;;;;;;;;;14.90;99.90;;;;;;5038733;28;20364;-80
2023/04/18 13:04:32;;;;;;;;;;;14.90;99.90;;;;;;5005397;28;20340;-79
2023/04/18 13:06:58;;;;;;;;;;;14.80;99.90;;;;;;5035545;28;19992;-78
2023/04/18 13:09:25;;;;;;;;;;;15.10;99.90;;;;;;5019150;28;19921;-79
2023/04/18 13:11:51;;;;;;;;;;;14.80;99.90;;;;;;5022926;28;20015;-78
2023/04/18 13:14:17;;;;;;;;;;;14.60;99.90;;;;;;5018685;28;19920;-78
2023/04/18 13:16:42;;;;;;;;;;;14.90;99.90;;;;;;5021285;28;19921;-78
2023/04/18 13:19:08;;;;;;;;;;;15.30;99.90;;;;;;5020273;28;19932;-79
2023/04/18 13:21:34;;;;;;;;;;;14.90;99.90;;;;;;5021495;28;19950;-78
2023/04/18 13:23:59;;;;;;;;;;;15.00;99.90;;;;;;5019999;28;20365;-79
2023/04/18 13:26:25;;;;;;;;;;;14.80;99.90;;;;;;5019809;28;19978;-78
2023/04/18 13:28:51;;;;;;;;;;;14.90;99.90;;;;;;4999936;28;19971;-78
2023/04/18 13:31:16;;;;;;;;;;;15.70;99.90;;;;;;5021611;28;19924;-78
2023/04/18 13:33:42;;;;;;;;;;;15.60;99.90;;;;;;5037496;28;19982;-79
2023/04/18 13:36:07;;;;;;;;;;;15.80;99.90;;;;;;5019070;28;20016;-80
2023/04/18 13:38:33;;;;;;;;;;;15.70;99.90;;;;;;5014910;28;19936;-79
2023/04/18 13:40:59;;;;;;;;;;;15.50;99.90;;;;;;5018550;28;20375;-78
2023/04/18 13:43:25;;;;;;;;;;;15.80;99.90;;;;;;5016671;28;20430;-79
2023/04/18 13:45:51;;;;;;;;;;;15.60;99.90;;;;;;5016802;28;19924;-79
2023/04/18 13:48:17;;;;;;;;;;;15.20;99.90;;;;;;5017732;28;19927;-80
2023/04/18 13:50:42;;;;;;;;;;;15.50;99.90;;;;;;5032769;28;19916;-78
2023/04/18 13:53:08;;;;;;;;;;;15.20;99.90;;;;;;5020326;28;19920;-80
2023/04/18 13:55:33;;;;;;;;;;;15.50;99.90;;;;;;5020872;28;20015;-78
2023/04/18 13:57:59;;;;;;;;;;;15.80;99.90;;;;;;5019851;28;20418;-78
2023/04/18 14:00:25;;;;;;;;;;;15.40;99.90;;;;;;5016545;28;20747;-78
2023/04/18 14:02:51;;;;;;;;;;;15.90;99.90;;;;;;5005763;28;19924;-78
2023/04/18 14:05:17;;;;;;;;;;;15.60;99.90;;;;;;5021153;28;19920;-77
2023/04/18 14:07:42;;;;;;;;;;;15.60;99.90;;;;;;5017962;28;19920;-78
2023/04/18 14:10:08;;;;;;;;;;;15.60;99.90;;;;;;5037119;28;20066;-78
2023/04/18 14:12:33;;;;;;;;;;;15.20;99.90;;;;;;5017834;28;20413;-78
2023/04/18 14:14:59;;;;;;;;;;;15.50;99.90;;;;;;5036661;28;19975;-78
2023/04/18 14:17:25;;;;;;;;;;;15.20;99.90;;;;;;5018648;28;20405;-78
2023/04/18 14:19:50;;;;;;;;;;;15.40;99.90;;;;;;5019313;28;19940;-78